createdAt,value
2022-11-13T00:00:40.537Z,1027.39
2022-11-13T00:01:40.538Z,1027.41
2022-11-13T00:02:40.928Z,1027.38
2022-11-13T00:03:40.588Z,1027.39
2022-11-13T00:04:40.532Z,1027.34
2022-11-13T00:05:40.533Z,1027.33
2022-11-13T00:06:40.666Z,1027.31
2022-11-13T00:07:40.529Z,1027.29
2022-11-13T00:08:40.530Z,1027.32
2022-11-13T00:09:40.559Z,1027.31
2022-11-13T00:10:40.528Z,1027.29
2022-11-13T00:11:40.525Z,1027.31
2022-11-13T00:12:40.529Z,1027.30
2022-11-13T00:13:40.522Z,1027.28
2022-11-13T00:14:40.525Z,1027.33
2022-11-13T00:15:40.636Z,1027.35
2022-11-13T00:16:40.521Z,1027.31
2022-11-13T00:17:40.522Z,1027.32
2022-11-13T00:18:40.525Z,1027.35
2022-11-13T00:19:40.522Z,1027.33
2022-11-13T00:20:40.519Z,1027.29
2022-11-13T00:21:40.515Z,1027.30
2022-11-13T00:22:40.522Z,1027.36
2022-11-13T00:23:40.512Z,1027.38
2022-11-13T00:24:40.518Z,1027.37
2022-11-13T00:25:40.511Z,1027.36
2022-11-13T00:26:40.509Z,1027.36
2022-11-13T00:27:40.509Z,1027.37
2022-11-13T00:28:40.506Z,1027.36
2022-11-13T00:29:40.510Z,1027.36
2022-11-13T00:30:40.505Z,1027.33
2022-11-13T00:31:40.625Z,1027.35
2022-11-13T00:32:40.510Z,1027.36
2022-11-13T00:34:19.992Z,1027.33
2022-11-13T00:34:47.488Z,1027.37
2022-11-13T00:35:40.502Z,1027.37
2022-11-13T00:36:40.498Z,1027.36
2022-11-13T00:37:40.503Z,1027.38
2022-11-13T00:38:40.498Z,1027.32
2022-11-13T00:39:40.499Z,1027.32
2022-11-13T00:40:40.499Z,1027.26
2022-11-13T00:41:40.497Z,1027.31
2022-11-13T00:42:40.494Z,1027.24
2022-11-13T00:43:40.498Z,1027.29
2022-11-13T00:44:40.493Z,1027.26
2022-11-13T00:45:40.492Z,1027.25
2022-11-13T00:46:40.490Z,1027.24
2022-11-13T00:47:40.604Z,1027.24
2022-11-13T00:48:40.487Z,1027.21
2022-11-13T00:49:40.491Z,1027.19
2022-11-13T00:50:40.488Z,1027.15
2022-11-13T00:51:40.485Z,1027.16
2022-11-13T00:52:40.487Z,1027.13
2022-11-13T00:53:40.486Z,1027.11
2022-11-13T00:54:40.483Z,1027.12
2022-11-13T00:55:40.498Z,1027.10
2022-11-13T00:56:40.480Z,1027.08
2022-11-13T00:57:40.485Z,1027.10
2022-11-13T00:58:40.479Z,1027.06
2022-11-13T00:59:40.477Z,1027.10
2022-11-13T01:00:40.475Z,1027.13
2022-11-13T01:01:40.594Z,1027.10
2022-11-13T01:02:40.474Z,1027.07
2022-11-13T01:03:40.592Z,1027.11
2022-11-13T01:04:40.477Z,1027.05
2022-11-13T01:05:40.475Z,1027.03
2022-11-13T01:06:40.520Z,1027.03
2022-11-13T01:07:40.477Z,1027.01
2022-11-13T01:08:40.471Z,1027.02
2022-11-13T01:09:40.473Z,1027.01
2022-11-13T01:10:40.469Z,1027.02
2022-11-13T01:11:40.474Z,1026.98
2022-11-13T01:12:40.466Z,1026.99
2022-11-13T01:13:40.468Z,1026.96
2022-11-13T01:14:40.465Z,1026.92
2022-11-13T01:15:40.463Z,1026.86
2022-11-13T01:16:40.466Z,1026.89
2022-11-13T01:17:40.463Z,1026.89
2022-11-13T01:18:40.464Z,1026.91
2022-11-13T01:19:40.580Z,1026.92
2022-11-13T01:20:40.459Z,1026.93
2022-11-13T01:21:40.462Z,1026.92
2022-11-13T01:22:40.457Z,1026.89
2022-11-13T01:23:40.458Z,1026.92
2022-11-13T01:24:40.458Z,1026.88
2022-11-13T01:25:40.454Z,1026.85
2022-11-13T01:26:40.451Z,1026.85
2022-11-13T01:27:40.455Z,1026.85
2022-11-13T01:28:40.454Z,1026.84
2022-11-13T01:29:40.454Z,1026.84
2022-11-13T01:30:40.447Z,1026.85
2022-11-13T01:31:40.451Z,1026.85
2022-11-13T01:32:40.447Z,1026.85
2022-11-13T01:33:40.451Z,1026.85
2022-11-13T01:34:40.772Z,1026.82
2022-11-13T01:35:40.555Z,1026.86
2022-11-13T01:36:40.446Z,1026.84
2022-11-13T01:37:40.445Z,1026.84
2022-11-13T01:38:40.440Z,1026.83
2022-11-13T01:39:40.444Z,1026.86
2022-11-13T01:40:40.445Z,1026.85
2022-11-13T01:41:40.444Z,1026.88
2022-11-13T01:42:40.447Z,1026.87
2022-11-13T01:43:40.443Z,1026.87
2022-11-13T01:44:40.438Z,1026.88
2022-11-13T01:45:40.439Z,1026.83
2022-11-13T01:46:40.437Z,1026.82
2022-11-13T01:47:40.434Z,1026.78
2022-11-13T01:48:40.431Z,1026.75
2022-11-13T01:49:40.434Z,1026.77
2022-11-13T01:50:40.430Z,1026.70
2022-11-13T01:51:40.549Z,1026.76
2022-11-13T01:52:40.432Z,1026.76
2022-11-13T01:53:40.429Z,1026.76
2022-11-13T01:54:40.430Z,1026.75
2022-11-13T01:55:40.424Z,1026.70
2022-11-13T01:56:40.434Z,1026.67
2022-11-13T01:57:40.429Z,1026.63
2022-11-13T01:58:40.423Z,1026.60
2022-11-13T01:59:40.425Z,1026.60
2022-11-13T02:00:40.421Z,1026.59
2022-11-13T02:01:40.466Z,1026.63
2022-11-13T02:02:40.419Z,1026.60
2022-11-13T02:03:40.474Z,1026.57
2022-11-13T02:04:40.416Z,1026.62
2022-11-13T02:05:40.421Z,1026.58
2022-11-13T02:06:40.453Z,1026.59
2022-11-13T02:07:40.533Z,1026.58
2022-11-13T02:08:40.410Z,1026.58
2022-11-13T02:09:40.412Z,1026.58
2022-11-13T02:10:40.417Z,1026.56
2022-11-13T02:11:40.415Z,1026.56
2022-11-13T02:12:40.408Z,1026.51
2022-11-13T02:13:40.413Z,1026.50
2022-11-13T02:14:40.408Z,1026.51
2022-11-13T02:15:40.407Z,1026.49
2022-11-13T02:16:40.407Z,1026.47
2022-11-13T02:17:40.406Z,1026.47
2022-11-13T02:18:40.408Z,1026.48
2022-11-13T02:19:40.407Z,1026.46
2022-11-13T02:20:40.406Z,1026.48
2022-11-13T02:21:40.403Z,1026.47
2022-11-13T02:22:40.403Z,1026.44
2022-11-13T02:23:40.519Z,1026.46
2022-11-13T02:24:44.767Z,1026.44
2022-11-13T02:25:40.406Z,1026.47
2022-11-13T02:26:40.399Z,1026.47
2022-11-13T02:27:40.397Z,1026.45
2022-11-13T02:28:40.400Z,1026.46
2022-11-13T02:29:40.398Z,1026.50
2022-11-13T02:30:40.391Z,1026.49
2022-11-13T02:31:40.394Z,1026.47
2022-11-13T02:32:40.393Z,1026.51
2022-11-13T02:33:40.395Z,1026.41
2022-11-13T02:34:40.387Z,1026.47
2022-11-13T02:35:40.389Z,1026.42
2022-11-13T02:36:40.385Z,1026.45
2022-11-13T02:37:40.386Z,1026.44
2022-11-13T02:38:40.387Z,1026.46
2022-11-13T02:39:40.499Z,1026.45
2022-11-13T02:40:40.383Z,1026.40
2022-11-13T02:41:40.385Z,1026.40
2022-11-13T02:42:40.383Z,1026.38
2022-11-13T02:43:40.389Z,1026.36
2022-11-13T02:44:40.381Z,1026.36
2022-11-13T02:45:40.376Z,1026.32
2022-11-13T02:46:40.375Z,1026.32
2022-11-13T02:47:40.375Z,1026.34
2022-11-13T02:48:40.374Z,1026.29
2022-11-13T02:49:40.382Z,1026.31
2022-11-13T02:50:40.382Z,1026.30
2022-11-13T02:51:40.375Z,1026.24
2022-11-13T02:52:40.435Z,1026.25
2022-11-13T02:53:40.371Z,1026.23
2022-11-13T02:54:40.366Z,1026.24
2022-11-13T02:55:40.487Z,1026.24
2022-11-13T02:56:40.373Z,1026.23
2022-11-13T02:57:40.368Z,1026.23
2022-11-13T02:58:40.369Z,1026.25
2022-11-13T02:59:40.368Z,1026.20
2022-11-13T03:00:40.366Z,1026.15
2022-11-13T03:01:40.424Z,1026.19
2022-11-13T03:02:40.361Z,1026.10
2022-11-13T03:03:57.116Z,1026.11
2022-11-13T03:05:10.393Z,1026.10
2022-11-13T03:05:40.358Z,1026.09
2022-11-13T03:06:40.452Z,1026.11
2022-11-13T03:07:40.356Z,1026.11
2022-11-13T03:08:40.538Z,1026.08
2022-11-13T03:09:40.355Z,1026.10
2022-11-13T03:10:40.359Z,1026.11
2022-11-13T03:11:40.473Z,1026.14
2022-11-13T03:12:40.355Z,1026.13
2022-11-13T03:13:40.354Z,1026.05
2022-11-13T03:14:40.350Z,1026.10
2022-11-13T03:15:40.351Z,1026.10
2022-11-13T03:16:40.352Z,1026.07
2022-11-13T03:17:40.350Z,1026.03
2022-11-13T03:18:40.347Z,1025.99
2022-11-13T03:19:40.348Z,1026.03
2022-11-13T03:20:40.345Z,1026.03
2022-11-13T03:21:40.346Z,1026.02
2022-11-13T03:22:40.339Z,1026.01
2022-11-13T03:23:40.375Z,1026.01
2022-11-13T03:24:40.341Z,1025.98
2022-11-13T03:25:40.340Z,1026.02
2022-11-13T03:26:40.338Z,1025.98
2022-11-13T03:27:40.454Z,1025.97
2022-11-13T03:28:40.337Z,1026.00
2022-11-13T03:29:40.336Z,1025.95
2022-11-13T03:30:40.334Z,1025.95
2022-11-13T03:31:40.336Z,1025.94
2022-11-13T03:32:40.333Z,1025.96
2022-11-13T03:33:40.335Z,1025.93
2022-11-13T03:34:40.329Z,1025.96
2022-11-13T03:35:45.441Z,1025.92
2022-11-13T03:36:40.332Z,1025.95
2022-11-13T03:37:40.328Z,1025.96
2022-11-13T03:38:40.328Z,1025.99
2022-11-13T03:39:40.324Z,1025.95
2022-11-13T03:40:40.323Z,1026.03
2022-11-13T03:41:40.329Z,1026.03
2022-11-13T03:42:40.323Z,1026.04
2022-11-13T03:43:40.440Z,1025.98
2022-11-13T03:44:40.322Z,1026.03
2022-11-13T03:45:40.319Z,1026.03
2022-11-13T03:46:40.314Z,1026.05
2022-11-13T03:47:40.320Z,1026.00
2022-11-13T03:48:40.313Z,1026.03
2022-11-13T03:49:40.317Z,1026.01
2022-11-13T03:50:45.260Z,1026.04
2022-11-13T03:51:40.313Z,1026.06
2022-11-13T03:52:40.309Z,1026.07
2022-11-13T03:53:40.313Z,1026.09
2022-11-13T03:54:40.310Z,1026.05
2022-11-13T03:55:40.309Z,1026.06
2022-11-13T03:56:40.311Z,1026.08
2022-11-13T03:57:40.309Z,1026.06
2022-11-13T03:58:40.644Z,1026.03
2022-11-13T03:59:40.330Z,1026.03
2022-11-13T04:00:40.302Z,1026.05
2022-11-13T04:01:40.346Z,1026.04
2022-11-13T04:02:40.300Z,1025.99
2022-11-13T04:03:40.300Z,1026.00
2022-11-13T04:04:40.307Z,1025.99
2022-11-13T04:05:40.306Z,1026.01
2022-11-13T04:06:40.372Z,1025.97
2022-11-13T04:07:40.295Z,1026.07
2022-11-13T04:08:40.346Z,1026.04
2022-11-13T04:09:40.297Z,1026.05
2022-11-13T04:10:40.294Z,1026.08
2022-11-13T04:11:40.294Z,1025.99
2022-11-13T04:12:40.294Z,1026.04
2022-11-13T04:13:40.290Z,1026.04
2022-11-13T04:14:40.290Z,1026.05
2022-11-13T04:15:40.404Z,1026.05
2022-11-13T04:16:40.322Z,1026.07
2022-11-13T04:17:40.292Z,1026.03
2022-11-13T04:18:40.283Z,1026.04
2022-11-13T04:19:40.281Z,1026.01
2022-11-13T04:20:40.287Z,1025.98
2022-11-13T04:21:40.279Z,1025.93
2022-11-13T04:22:40.278Z,1025.94
2022-11-13T04:23:40.279Z,1025.91
2022-11-13T04:24:40.279Z,1025.93
2022-11-13T04:25:40.281Z,1025.91
2022-11-13T04:26:40.276Z,1025.92
2022-11-13T04:27:40.271Z,1025.86
2022-11-13T04:28:40.288Z,1025.86
2022-11-13T04:29:40.274Z,1025.84
2022-11-13T04:30:40.268Z,1025.84
2022-11-13T04:31:40.391Z,1025.80
2022-11-13T04:32:40.273Z,1025.77
2022-11-13T04:33:40.268Z,1025.76
2022-11-13T04:34:40.269Z,1025.75
2022-11-13T04:35:40.268Z,1025.76
2022-11-13T04:36:40.265Z,1025.78
2022-11-13T04:37:40.272Z,1025.78
2022-11-13T04:38:40.265Z,1025.80
2022-11-13T04:39:40.265Z,1025.80
2022-11-13T04:40:40.268Z,1025.75
2022-11-13T04:41:40.259Z,1025.73
2022-11-13T04:42:40.264Z,1025.77
2022-11-13T04:43:40.259Z,1025.74
2022-11-13T04:44:40.261Z,1025.76
2022-11-13T04:45:40.261Z,1025.80
2022-11-13T04:46:40.255Z,1025.79
2022-11-13T04:47:40.380Z,1025.78
2022-11-13T04:48:40.253Z,1025.78
2022-11-13T04:49:40.250Z,1025.79
2022-11-13T04:50:40.249Z,1025.80
2022-11-13T04:51:40.251Z,1025.81
2022-11-13T04:52:40.249Z,1025.84
2022-11-13T04:53:40.250Z,1025.80
2022-11-13T04:54:40.245Z,1025.81
2022-11-13T04:55:40.244Z,1025.79
2022-11-13T04:56:40.242Z,1025.79
2022-11-13T04:57:40.258Z,1025.76
2022-11-13T04:58:40.250Z,1025.77
2022-11-13T04:59:40.251Z,1025.77
2022-11-13T05:00:40.242Z,1025.80
2022-11-13T05:01:40.285Z,1025.78
2022-11-13T05:02:40.243Z,1025.76
2022-11-13T05:03:40.355Z,1025.76
2022-11-13T05:04:40.247Z,1025.73
2022-11-13T05:05:40.238Z,1025.71
2022-11-13T05:06:40.281Z,1025.75
2022-11-13T05:07:40.234Z,1025.76
2022-11-13T05:08:40.284Z,1025.72
2022-11-13T05:09:40.235Z,1025.74
2022-11-13T05:10:40.230Z,1025.75
2022-11-13T05:11:40.237Z,1025.74
2022-11-13T05:12:40.230Z,1025.68
2022-11-13T05:13:40.225Z,1025.73
2022-11-13T05:14:40.236Z,1025.72
2022-11-13T05:15:40.223Z,1025.71
2022-11-13T05:16:40.226Z,1025.75
2022-11-13T05:17:40.224Z,1025.75
2022-11-13T05:18:40.226Z,1025.78
2022-11-13T05:19:40.344Z,1025.71
2022-11-13T05:20:40.220Z,1025.72
2022-11-13T05:21:40.220Z,1025.67
2022-11-13T05:22:40.229Z,1025.72
2022-11-13T05:23:40.215Z,1025.74
2022-11-13T05:24:40.223Z,1025.68
2022-11-13T05:25:40.217Z,1025.75
2022-11-13T05:26:40.214Z,1025.72
2022-11-13T05:27:40.209Z,1025.76
2022-11-13T05:28:40.214Z,1025.69
2022-11-13T05:29:40.209Z,1025.75
2022-11-13T05:30:40.210Z,1025.77
2022-11-13T05:31:40.216Z,1025.71
2022-11-13T05:32:40.206Z,1025.68
2022-11-13T05:33:40.207Z,1025.71
2022-11-13T05:34:40.206Z,1025.73
2022-11-13T05:35:40.320Z,1025.67
2022-11-13T05:36:40.204Z,1025.70
2022-11-13T05:37:40.202Z,1025.70
2022-11-13T05:38:40.204Z,1025.65
2022-11-13T05:39:40.200Z,1025.65
2022-11-13T05:40:40.198Z,1025.68
2022-11-13T05:41:40.202Z,1025.69
2022-11-13T05:42:40.198Z,1025.65
2022-11-13T05:43:40.194Z,1025.67
2022-11-13T05:44:40.195Z,1025.66
2022-11-13T05:45:40.192Z,1025.65
2022-11-13T05:46:40.194Z,1025.65
2022-11-13T05:47:40.187Z,1025.65
2022-11-13T05:48:40.198Z,1025.66
2022-11-13T05:49:40.187Z,1025.66
2022-11-13T05:50:40.189Z,1025.67
2022-11-13T05:51:40.309Z,1025.64
2022-11-13T05:52:40.188Z,1025.65
2022-11-13T05:53:40.186Z,1025.61
2022-11-13T05:54:40.184Z,1025.61
2022-11-13T05:55:40.185Z,1025.62
2022-11-13T05:56:40.183Z,1025.57
2022-11-13T05:57:40.179Z,1025.61
2022-11-13T05:58:40.178Z,1025.52
2022-11-13T05:59:40.178Z,1025.53
2022-11-13T06:00:40.183Z,1025.55
2022-11-13T06:01:40.273Z,1025.53
2022-11-13T06:02:40.177Z,1025.57
2022-11-13T06:03:40.174Z,1025.55
2022-11-13T06:04:40.178Z,1025.53
2022-11-13T06:05:40.170Z,1025.50
2022-11-13T06:06:40.215Z,1025.52
2022-11-13T06:07:40.285Z,1025.50
2022-11-13T06:08:40.170Z,1025.47
2022-11-13T06:09:40.169Z,1025.49
2022-11-13T06:10:40.166Z,1025.46
2022-11-13T06:11:40.164Z,1025.49
2022-11-13T06:12:40.168Z,1025.42
2022-11-13T06:13:40.161Z,1025.43
2022-11-13T06:14:40.164Z,1025.45
2022-11-13T06:15:40.175Z,1025.40
2022-11-13T06:16:40.160Z,1025.40
2022-11-13T06:17:40.160Z,1025.41
2022-11-13T06:18:40.159Z,1025.44
2022-11-13T06:19:40.156Z,1025.37
2022-11-13T06:20:40.161Z,1025.41
2022-11-13T06:21:40.155Z,1025.37
2022-11-13T06:22:40.154Z,1025.36
2022-11-13T06:23:40.267Z,1025.35
2022-11-13T06:24:40.152Z,1025.35
2022-11-13T06:25:40.149Z,1025.33
2022-11-13T06:26:40.153Z,1025.38
2022-11-13T06:27:40.149Z,1025.40
2022-11-13T06:28:40.152Z,1025.38
2022-11-13T06:29:40.144Z,1025.37
2022-11-13T06:30:40.150Z,1025.42
2022-11-13T06:31:40.150Z,1025.38
2022-11-13T06:32:40.145Z,1025.38
2022-11-13T06:33:40.143Z,1025.37
2022-11-13T06:34:40.147Z,1025.37
2022-11-13T06:35:40.139Z,1025.40
2022-11-13T06:36:40.142Z,1025.39
2022-11-13T06:37:40.136Z,1025.38
2022-11-13T06:38:40.224Z,1025.36
2022-11-13T06:39:40.254Z,1025.36
2022-11-13T06:40:40.137Z,1025.34
2022-11-13T06:41:40.133Z,1025.34
2022-11-13T06:42:40.136Z,1025.31
2022-11-13T06:43:40.130Z,1025.34
2022-11-13T06:44:40.133Z,1025.33
2022-11-13T06:45:40.129Z,1025.34
2022-11-13T06:46:40.128Z,1025.33
2022-11-13T06:47:40.129Z,1025.30
2022-11-13T06:48:40.131Z,1025.27
2022-11-13T06:49:40.131Z,1025.28
2022-11-13T06:50:42.404Z,1025.29
2022-11-13T06:51:40.121Z,1025.30
2022-11-13T06:52:40.130Z,1025.28
2022-11-13T06:53:40.123Z,1025.27
2022-11-13T06:54:40.122Z,1025.28
2022-11-13T06:55:40.303Z,1025.29
2022-11-13T06:56:40.120Z,1025.28
2022-11-13T06:57:40.116Z,1025.22
2022-11-13T06:58:40.119Z,1025.25
2022-11-13T06:59:40.119Z,1025.22
2022-11-13T07:00:40.364Z,1025.23
2022-11-13T07:01:40.149Z,1025.20
2022-11-13T07:02:40.111Z,1025.22
2022-11-13T07:03:40.116Z,1025.18
2022-11-13T07:04:40.112Z,1025.22
2022-11-13T07:05:40.160Z,1025.19
2022-11-13T07:06:40.629Z,1025.17
2022-11-13T07:07:40.111Z,1025.17
2022-11-13T07:08:40.208Z,1025.15
2022-11-13T07:09:40.102Z,1025.13
2022-11-13T07:10:40.107Z,1025.18
2022-11-13T07:11:40.227Z,1025.17
2022-11-13T07:12:40.104Z,1025.17
2022-11-13T07:13:40.106Z,1025.16
2022-11-13T07:14:40.101Z,1025.16
2022-11-13T07:15:40.097Z,1025.17
2022-11-13T07:17:04.738Z,1025.15
2022-11-13T07:17:40.098Z,1025.09
2022-11-13T07:18:40.098Z,1025.13
2022-11-13T07:19:40.095Z,1025.10
2022-11-13T07:20:40.091Z,1025.08
2022-11-13T07:21:40.098Z,1025.12
2022-11-13T07:22:40.087Z,1025.11
2022-11-13T07:23:40.090Z,1025.09
2022-11-13T07:24:40.095Z,1025.06
2022-11-13T07:25:40.089Z,1025.07
2022-11-13T07:26:40.097Z,1025.01
2022-11-13T07:27:40.208Z,1025.01
2022-11-13T07:28:40.092Z,1024.98
2022-11-13T07:29:40.084Z,1025.01
2022-11-13T07:30:40.082Z,1024.97
2022-11-13T07:31:40.085Z,1025.06
2022-11-13T07:32:40.078Z,1025.01
2022-11-13T07:33:40.082Z,1024.99
2022-11-13T07:34:40.075Z,1024.99
2022-11-13T07:35:40.077Z,1025.04
2022-11-13T07:36:40.074Z,1025.06
2022-11-13T07:37:40.074Z,1025.07
2022-11-13T07:38:40.078Z,1025.06
2022-11-13T07:39:40.074Z,1025.02
2022-11-13T07:40:40.073Z,1025.03
2022-11-13T07:41:40.071Z,1025.05
2022-11-13T07:42:40.078Z,1025.01
2022-11-13T07:43:40.189Z,1025.05
2022-11-13T07:44:54.203Z,1025.09
2022-11-13T07:45:40.067Z,1025.10
2022-11-13T07:46:40.065Z,1025.10
2022-11-13T07:47:40.066Z,1025.05
2022-11-13T07:48:40.064Z,1025.07
2022-11-13T07:49:40.065Z,1025.07
2022-11-13T07:50:40.068Z,1025.06
2022-11-13T07:51:40.061Z,1025.09
2022-11-13T07:52:40.063Z,1025.09
2022-11-13T07:53:40.065Z,1025.10
2022-11-13T07:54:40.047Z,1025.05
2022-11-13T07:55:40.064Z,1025.06
2022-11-13T07:56:40.057Z,1025.05
2022-11-13T07:57:40.058Z,1025.00
2022-11-13T07:58:40.056Z,1025.02
2022-11-13T07:59:40.173Z,1025.05
2022-11-13T08:00:40.239Z,1025.07
2022-11-13T08:01:40.065Z,1025.04
2022-11-13T08:02:40.051Z,1025.04
2022-11-13T08:03:40.053Z,1025.01
2022-11-13T08:04:40.046Z,1025.03
2022-11-13T08:05:40.048Z,1025.04
2022-11-13T08:06:40.127Z,1025.03
2022-11-13T08:07:40.050Z,1025.05
2022-11-13T08:08:40.041Z,1025.05
2022-11-13T08:09:40.041Z,1025.04
2022-11-13T08:10:40.039Z,1025.05
2022-11-13T08:11:40.036Z,1025.03
2022-11-13T08:12:40.037Z,1025.03
2022-11-13T08:13:40.042Z,1025.03
2022-11-13T08:14:40.032Z,1025.03
2022-11-13T08:15:40.149Z,1024.99
2022-11-13T08:16:40.036Z,1025.02
2022-11-13T08:17:40.038Z,1025.06
2022-11-13T08:18:40.048Z,1025.04
2022-11-13T08:19:40.032Z,1025.08
2022-11-13T08:20:40.033Z,1025.07
2022-11-13T08:21:40.028Z,1025.09
2022-11-13T08:22:40.033Z,1025.04
2022-11-13T08:23:40.027Z,1025.05
2022-11-13T08:24:40.031Z,1024.99
2022-11-13T08:25:40.027Z,1025.00
2022-11-13T08:26:40.018Z,1025.04
2022-11-13T08:27:40.019Z,1025.03
2022-11-13T08:28:40.013Z,1025.07
2022-11-13T08:29:40.023Z,1025.08
2022-11-13T08:30:40.013Z,1025.05
2022-11-13T08:31:40.128Z,1025.01
2022-11-13T08:32:40.025Z,1025.02
2022-11-13T08:33:40.015Z,1025.06
2022-11-13T08:34:40.011Z,1024.99
2022-11-13T08:35:40.009Z,1024.96
2022-11-13T08:36:40.012Z,1025.04
2022-11-13T08:37:40.009Z,1025.01
2022-11-13T08:38:40.022Z,1025.01
2022-11-13T08:39:40.007Z,1025.01
2022-11-13T08:40:40.010Z,1025.01
2022-11-13T08:41:40.013Z,1024.99
2022-11-13T08:42:40.006Z,1025.00
2022-11-13T08:43:40.002Z,1024.96
2022-11-13T08:44:40.006Z,1024.99
2022-11-13T08:45:40.000Z,1024.96
2022-11-13T08:46:39.999Z,1024.94
2022-11-13T08:47:40.114Z,1024.95
2022-11-13T08:48:40.000Z,1024.97
2022-11-13T08:49:39.997Z,1024.96
2022-11-13T08:50:39.993Z,1024.99
2022-11-13T08:51:40.007Z,1024.96
2022-11-13T08:52:39.995Z,1024.99
2022-11-13T08:53:39.987Z,1025.00
2022-11-13T08:54:40.011Z,1025.03
2022-11-13T08:55:40.028Z,1025.02
2022-11-13T08:56:40.023Z,1025.03
2022-11-13T08:57:40.007Z,1025.01
2022-11-13T08:58:40.013Z,1025.11
2022-11-13T08:59:40.026Z,1025.02
2022-11-13T09:00:40.019Z,1025.06
2022-11-13T09:01:40.029Z,1025.00
2022-11-13T09:02:40.035Z,1024.99
2022-11-13T09:03:40.245Z,1024.98
2022-11-13T09:04:39.999Z,1024.95
2022-11-13T09:05:40.022Z,1024.95
2022-11-13T09:06:40.093Z,1024.92
2022-11-13T09:07:40.013Z,1024.92
2022-11-13T09:08:39.982Z,1024.92
2022-11-13T09:09:39.981Z,1024.93
2022-11-13T09:10:39.982Z,1024.91
2022-11-13T09:11:39.974Z,1024.92
2022-11-13T09:12:39.971Z,1024.91
2022-11-13T09:13:44.518Z,1024.94
2022-11-13T09:14:39.968Z,1024.91
2022-11-13T09:15:39.969Z,1024.90
2022-11-13T09:16:39.960Z,1024.91
2022-11-13T09:17:39.970Z,1024.94
2022-11-13T09:18:39.977Z,1024.93
2022-11-13T09:19:40.073Z,1024.96
2022-11-13T09:20:39.967Z,1025.00
2022-11-13T09:21:39.965Z,1024.98
2022-11-13T09:22:39.966Z,1024.99
2022-11-13T09:23:39.960Z,1024.98
2022-11-13T09:24:39.959Z,1025.00
2022-11-13T09:25:39.961Z,1024.99
2022-11-13T09:26:39.960Z,1025.00
2022-11-13T09:27:39.964Z,1025.00
2022-11-13T09:28:39.961Z,1024.97
2022-11-13T09:29:39.954Z,1024.98
2022-11-13T09:30:39.962Z,1025.00
2022-11-13T09:31:39.950Z,1024.99
2022-11-13T09:32:39.954Z,1024.98
2022-11-13T09:33:39.949Z,1025.00
2022-11-13T09:34:39.949Z,1024.99
2022-11-13T09:35:40.068Z,1024.94
2022-11-13T09:36:39.952Z,1024.99
2022-11-13T09:37:39.946Z,1024.97
2022-11-13T09:38:39.942Z,1024.98
2022-11-13T09:39:39.959Z,1024.94
2022-11-13T09:40:39.943Z,1024.89
2022-11-13T09:41:39.949Z,1024.94
2022-11-13T09:42:39.942Z,1024.91
2022-11-13T09:43:39.940Z,1024.88
2022-11-13T09:44:39.945Z,1024.87
2022-11-13T09:45:39.942Z,1024.87
2022-11-13T09:46:39.939Z,1024.88
2022-11-13T09:47:39.942Z,1024.87
2022-11-13T09:48:39.934Z,1024.85
2022-11-13T09:49:39.937Z,1024.88
2022-11-13T09:50:39.932Z,1024.87
2022-11-13T09:51:40.046Z,1024.84
2022-11-13T09:52:39.933Z,1024.85
2022-11-13T09:53:39.927Z,1024.85
2022-11-13T09:54:39.938Z,1024.86
2022-11-13T09:55:39.929Z,1024.82
2022-11-13T09:56:39.929Z,1024.87
2022-11-13T09:57:39.922Z,1024.85
2022-11-13T09:58:39.923Z,1024.84
2022-11-13T09:59:39.921Z,1024.82
2022-11-13T10:00:39.973Z,1024.82
2022-11-13T10:01:39.922Z,1024.83
2022-11-13T10:02:39.917Z,1024.84
2022-11-13T10:03:59.878Z,1024.80
2022-11-13T10:04:39.915Z,1024.78
2022-11-13T10:05:39.917Z,1024.78
2022-11-13T10:06:39.974Z,1024.78
2022-11-13T10:07:40.043Z,1024.75
2022-11-13T10:08:39.913Z,1024.75
2022-11-13T10:09:39.913Z,1024.71
2022-11-13T10:10:39.908Z,1024.71
2022-11-13T10:11:39.907Z,1024.73
2022-11-13T10:12:39.907Z,1024.73
2022-11-13T10:13:39.908Z,1024.75
2022-11-13T10:14:39.904Z,1024.68
2022-11-13T10:15:39.909Z,1024.69
2022-11-13T10:16:39.906Z,1024.69
2022-11-13T10:17:39.928Z,1024.70
2022-11-13T10:18:39.903Z,1024.66
2022-11-13T10:19:39.914Z,1024.69
2022-11-13T10:20:39.902Z,1024.66
2022-11-13T10:21:39.902Z,1024.65
2022-11-13T10:22:39.902Z,1024.61
2022-11-13T10:23:40.031Z,1024.66
2022-11-13T10:24:39.899Z,1024.63
2022-11-13T10:25:39.897Z,1024.65
2022-11-13T10:26:39.895Z,1024.66
2022-11-13T10:27:40.015Z,1024.62
2022-11-13T10:28:55.281Z,1024.59
2022-11-13T10:29:43.440Z,1024.63
2022-11-13T10:30:39.889Z,1024.66
2022-11-13T10:31:39.895Z,1024.58
2022-11-13T10:32:39.892Z,1024.56
2022-11-13T10:33:39.893Z,1024.54
2022-11-13T10:34:40.221Z,1024.49
2022-11-13T10:35:39.901Z,1024.58
2022-11-13T10:36:39.889Z,1024.54
2022-11-13T10:37:39.887Z,1024.59
2022-11-13T10:38:39.889Z,1024.57
2022-11-13T10:39:40.001Z,1024.57
2022-11-13T10:40:39.889Z,1024.60
2022-11-13T10:41:39.885Z,1024.59
2022-11-13T10:42:39.881Z,1024.58
2022-11-13T10:43:39.884Z,1024.56
2022-11-13T10:44:39.877Z,1024.60
2022-11-13T10:45:39.884Z,1024.57
2022-11-13T10:46:39.880Z,1024.55
2022-11-13T10:48:03.164Z,1024.54
2022-11-13T10:48:39.877Z,1024.53
2022-11-13T10:49:39.884Z,1024.51
2022-11-13T10:50:39.889Z,1024.51
2022-11-13T10:51:39.879Z,1024.52
2022-11-13T10:52:39.877Z,1024.50
2022-11-13T10:53:39.877Z,1024.47
2022-11-13T10:54:39.872Z,1024.49
2022-11-13T10:55:39.989Z,1024.53
2022-11-13T10:56:39.874Z,1024.47
2022-11-13T10:57:39.875Z,1024.48
2022-11-13T10:58:39.873Z,1024.45
2022-11-13T10:59:39.875Z,1024.45
2022-11-13T11:00:39.866Z,1024.49
2022-11-13T11:01:39.978Z,1024.45
2022-11-13T11:02:39.867Z,1024.41
2022-11-13T11:03:39.868Z,1024.39
2022-11-13T11:04:39.867Z,1024.34
2022-11-13T11:05:39.877Z,1024.34
2022-11-13T11:07:39.985Z,1024.30
2022-11-13T11:08:39.868Z,1024.25
2022-11-13T11:09:39.866Z,1024.30
2022-11-13T11:10:39.864Z,1024.31
2022-11-13T11:11:39.979Z,1024.27
2022-11-13T11:12:39.872Z,1024.32
2022-11-13T11:13:39.860Z,1024.26
2022-11-13T11:14:39.862Z,1024.30
2022-11-13T11:15:39.860Z,1024.29
2022-11-13T11:16:39.860Z,1024.30
2022-11-13T11:17:39.863Z,1024.25
2022-11-13T11:18:39.863Z,1024.25
2022-11-13T11:19:39.867Z,1024.33
2022-11-13T11:20:39.864Z,1024.21
2022-11-13T11:21:39.862Z,1024.28
2022-11-13T11:22:39.858Z,1024.24
2022-11-13T11:23:39.872Z,1024.21
2022-11-13T11:24:40.054Z,1024.18
2022-11-13T11:25:39.854Z,1024.15
2022-11-13T11:26:39.858Z,1024.10
2022-11-13T11:27:39.973Z,1024.10
2022-11-13T11:28:39.858Z,1024.10
2022-11-13T11:29:39.852Z,1024.14
2022-11-13T11:30:39.851Z,1024.08
2022-11-13T11:31:39.852Z,1024.04
2022-11-13T11:32:39.852Z,1023.99
2022-11-13T11:33:39.850Z,1023.99
2022-11-13T11:34:39.857Z,1023.92
2022-11-13T11:35:39.850Z,1023.92
2022-11-13T11:36:39.850Z,1023.95
2022-11-13T11:37:39.854Z,1023.91
2022-11-13T11:38:39.860Z,1023.91
2022-11-13T11:39:39.854Z,1023.89
2022-11-13T11:40:39.848Z,1023.89
2022-11-13T11:41:39.843Z,1023.89
2022-11-13T11:42:39.845Z,1023.90
2022-11-13T11:43:39.955Z,1023.92
2022-11-13T11:44:39.844Z,1023.87
2022-11-13T11:45:39.841Z,1023.86
2022-11-13T11:46:44.100Z,1023.80
2022-11-13T11:47:39.847Z,1023.84
2022-11-13T11:48:39.845Z,1023.79
2022-11-13T11:49:39.844Z,1023.85
2022-11-13T11:50:39.843Z,1023.81
2022-11-13T11:51:39.836Z,1023.80
2022-11-13T11:52:39.845Z,1023.82
2022-11-13T11:53:39.835Z,1023.84
2022-11-13T11:54:39.850Z,1023.85
2022-11-13T11:55:39.839Z,1023.86
2022-11-13T11:56:39.835Z,1023.80
2022-11-13T11:57:39.842Z,1023.76
2022-11-13T11:58:39.833Z,1023.74
2022-11-13T11:59:39.972Z,1023.76
2022-11-13T12:00:39.838Z,1023.74
2022-11-13T12:01:39.836Z,1023.69
2022-11-13T12:02:39.836Z,1023.71
2022-11-13T12:03:39.830Z,1023.66
2022-11-13T12:04:39.877Z,1023.69
2022-11-13T12:05:39.881Z,1023.69
2022-11-13T12:06:39.868Z,1023.60